Northville, New York
Current Conditions -  °F | °C
As of 1:55 AM on Friday 19 Dec 2014 (Local Time) from KNY0 Reporting Station
Overcast Overcast  
Wind Chill: 17°   Ceiling: 3500
Heat Index: 27°   Visibility: 10mi
Dew Point: 22°   Wind: 10mph
Humidity: 82%   Direction: 340°NNW
Pressure: 29.94"   Gusts: 16mph
Location:  43.23°N, 74.17°W
Report Text: KNY0 190655Z AUTO 34009G14KT 10SM OVC035 M03/M06 A2994 RMK AO2 T10301057
Loading
Personal Weather Stations






























Interactive Weather Map New forecast layout! Learn more

10-Day Weather Forecast

Advertisements
Track Severe Weather on mobile